Time;durP1;ratioP1;P1;durP2;ratioP2;P2;SDS_P1;SDS_P2;PMS_P1;PMS_P2;Temp;Humidity;BMP_temperature;BMP_pressure;BME280_temperature;BME280_humidity;BME280_pressure;Samples;Min_cycle;Max_cycle;Signal;HPM_P1;HPM_P2
2022/07/09 00:01:03;;;;;;;4.93;4.63;;;;;;;19.91;97.44;94776.56;5134689;28;20451;-88
2022/07/09 00:03:30;;;;;;;5.57;5.10;;;;;;;19.92;97.01;94765.72;5134461;28;21040;-90
2022/07/09 00:05:59;;;;;;;5.03;4.60;;;;;;;19.90;97.11;94777.56;5134299;28;20449;-89
2022/07/09 00:08:26;;;;;;;7.30;4.87;;;;;;;19.91;96.91;94777.38;5134278;28;20446;-88
2022/07/09 00:10:52;;;;;;;10.93;5.10;;;;;;;19.93;97.32;94770.03;5133908;28;20481;-89
2022/07/09 00:13:21;;;;;;;5.50;5.10;;;;;;;19.98;97.53;94769.47;5134583;27;20458;-88
2022/07/09 00:15:48;;;;;;;6.23;5.73;;;;;;;20.00;97.67;94778.09;5138265;27;20454;-90
2022/07/09 00:18:15;;;;;;;5.50;5.10;;;;;;;20.04;98.10;94771.38;5137852;27;20573;-90
2022/07/09 00:20:42;;;;;;;5.80;4.87;;;;;;;20.06;98.09;94772.81;5137702;27;20454;-87
2022/07/09 00:23:09;;;;;;;5.70;5.20;;;;;;;20.06;98.00;94770.16;5137818;27;20457;-90
2022/07/09 00:25:36;;;;;;;4.70;4.30;;;;;;;20.06;98.14;94761.34;5137346;27;20454;-88
2022/07/09 00:28:03;;;;;;;5.67;5.17;;;;;;;20.04;98.35;94760.72;5137800;27;20451;-90
2022/07/09 00:30:31;;;;;;;6.37;5.87;;;;;;;20.01;98.19;94758.44;5137783;27;20462;-88
2022/07/09 00:32:58;;;;;;;5.50;5.10;;;;;;;19.99;98.35;94755.97;5137811;27;20450;-88
2022/07/09 00:35:25;;;;;;;6.30;5.30;;;;;;;19.97;98.45;94746.53;5137477;27;20453;-88
2022/07/09 00:37:52;;;;;;;5.90;5.40;;;;;;;20.00;98.47;94751.47;5137749;27;20477;-89
2022/07/09 00:40:19;;;;;;;7.57;5.20;;;;;;;19.97;98.54;94744.69;5101414;27;20446;-89
2022/07/09 00:42:46;;;;;;;9.80;5.83;;;;;;;20.01;98.29;94751.28;5143413;27;20470;-90
2022/07/09 00:45:13;;;;;;;7.00;5.20;;;;;;;19.97;98.39;94751.84;5145563;27;20449;-88
2022/07/09 00:47:42;;;;;;;9.47;5.20;;;;;;;19.98;98.42;94745.50;5146206;27;20517;-88
2022/07/09 00:50:09;;;;;;;5.83;5.43;;;;;;;19.99;99.42;94744.50;5146312;27;20453;-87
2022/07/09 00:52:38;;;;;;;6.83;6.30;;;;;;;19.95;99.58;94740.53;5146493;27;20450;-88
2022/07/09 00:55:06;;;;;;;11.53;6.30;;;;;;;19.97;100.00;94743.84;5146558;27;20804;-88
2022/07/09 00:57:34;;;;;;;8.20;7.47;;;;;;;19.92;100.00;94738.25;5146024;27;20460;-90
2022/07/09 01:00:01;;;;;;;9.50;8.70;;;;;;;19.86;100.00;94728.38;5146511;27;20439;-88
2022/07/09 01:02:28;;;;;;;8.60;7.90;;;;;;;19.83;100.00;94726.91;5145664;27;20518;-87
2022/07/09 01:04:57;;;;;;;9.70;8.80;;;;;;;19.60;100.00;94721.78;5146546;27;20435;-87
2022/07/09 01:07:24;;;;;;;10.17;8.33;;;;;;;19.47;100.00;94717.13;5145304;27;20438;-86
2022/07/09 01:09:51;;;;;;;8.80;7.97;;;;;;;19.35;100.00;94717.78;5137564;27;20446;-87
2022/07/09 01:12:19;;;;;;;8.90;8.10;;;;;;;19.23;100.00;94717.47;5136910;27;20447;-87
2022/07/09 01:14:46;;;;;;;6.73;6.23;;;;;;;19.16;100.00;94725.38;5136623;27;20434;-88
2022/07/09 01:17:13;;;;;;;7.97;7.17;;;;;;;19.10;100.00;94727.97;5136886;27;20451;-86
2022/07/09 01:19:39;;;;;;;10.53;7.20;;;;;;;18.99;100.00;94720.44;5136600;27;20470;-87
2022/07/09 01:22:09;;;;;;;7.53;6.90;;;;;;;19.02;100.00;94720.88;5136454;27;20556;-87
2022/07/09 01:24:36;;;;;;;7.40;6.70;;;;;;;18.95;100.00;94725.31;5136513;27;20447;-89
2022/07/09 01:27:04;;;;;;;7.70;7.10;;;;;;;18.92;100.00;94717.69;5136341;27;20430;-86
2022/07/09 01:29:30;;;;;;;7.63;7.03;;;;;;;18.86;100.00;94713.13;5136081;27;20464;-88
2022/07/09 01:31:57;;;;;;;8.03;7.33;;;;;;;18.85;100.00;94711.47;5135990;27;20559;-86
2022/07/09 01:34:25;;;;;;;7.30;6.13;;;;;;;18.79;100.00;94705.06;5136375;27;20555;-86
2022/07/09 01:36:52;;;;;;;7.13;6.53;;;;;;;18.87;100.00;94717.44;5099952;27;20431;-87
2022/07/09 01:39:20;;;;;;;7.10;6.40;;;;;;;18.90;100.00;94716.22;5135719;27;20478;-88
2022/07/09 01:41:47;;;;;;;7.23;6.60;;;;;;;18.88;100.00;94713.75;5136343;27;20447;-86
2022/07/09 01:44:14;;;;;;;8.07;7.43;;;;;;;18.89;100.00;94720.72;5135970;27;20438;-89
2022/07/09 01:46:41;;;;;;;7.50;6.90;;;;;;;18.83;100.00;94708.19;5135702;27;20453;-86
2022/07/09 01:49:08;;;;;;;7.00;6.40;;;;;;;18.78;100.00;94703.38;5135811;27;20546;-88
2022/07/09 01:51:36;;;;;;;7.10;6.50;;;;;;;18.71;100.00;94707.81;5135464;27;20442;-86
2022/07/09 01:54:03;;;;;;;7.30;6.70;;;;;;;18.75;100.00;94710.91;5135578;27;20857;-89
2022/07/09 01:56:32;;;;;;;7.27;6.67;;;;;;;18.68;100.00;94712.66;5135609;27;20434;-87
2022/07/09 01:58:59;;;;;;;6.97;6.30;;;;;;;18.76;100.00;94704.59;5135431;27;20481;-89
2022/07/09 02:01:26;;;;;;;6.87;6.27;;;;;;;18.69;100.00;94709.00;5135639;27;20458;-87
2022/07/09 02:03:53;;;;;;;8.83;5.50;;;;;;;18.73;100.00;94721.72;5135837;27;20442;-87
2022/07/09 02:06:20;;;;;;;7.63;6.50;;;;;;;18.75;100.00;94708.25;5135300;27;20460;-86
2022/07/09 02:08:47;;;;;;;8.03;5.73;;;;;;;18.73;100.00;94710.28;5136267;27;20449;-89
2022/07/09 02:11:15;;;;;;;6.53;6.00;;;;;;;18.72;100.00;94728.06;5135387;27;20473;-87
2022/07/09 02:13:43;;;;;;;5.83;5.43;;;;;;;18.71;100.00;94717.63;5135586;27;20705;-86
2022/07/09 02:16:10;;;;;;;6.40;5.80;;;;;;;18.69;100.00;94723.13;5135555;27;20447;-88
2022/07/09 02:18:37;;;;;;;6.37;5.90;;;;;;;18.71;100.00;94720.28;5135165;27;20504;-86
2022/07/09 02:21:05;;;;;;;6.77;6.23;;;;;;;18.70;100.00;94715.97;5139511;27;20450;-89
2022/07/09 02:23:32;;;;;;;6.47;5.97;;;;;;;18.71;100.00;94717.63;5143094;27;20480;-89
2022/07/09 02:25:59;;;;;;;6.47;5.97;;;;;;;18.69;100.00;94724.94;5139219;27;20453;-87
2022/07/09 02:28:26;;;;;;;8.00;6.60;;;;;;;18.69;100.00;94719.63;5135130;27;20445;-86
2022/07/09 02:30:54;;;;;;;6.57;5.97;;;;;;;18.62;100.00;94722.22;5134943;27;20438;-86
2022/07/09 02:33:21;;;;;;;5.97;5.47;;;;;;;18.60;100.00;94720.72;5135471;27;20812;-90
2022/07/09 02:35:48;;;;;;;5.90;5.40;;;;;;;18.55;100.00;94723.91;5134470;27;20936;-88
2022/07/09 02:38:15;;;;;;;7.40;5.33;;;;;;;18.53;100.00;94723.28;5134211;27;20991;-88
2022/07/09 02:40:42;;;;;;;6.83;6.23;;;;;;;18.53;100.00;94729.41;5135024;27;20490;-86
2022/07/09 02:43:09;;;;;;;6.50;5.97;;;;;;;18.51;100.00;94730.63;5134241;27;20430;-87
2022/07/09 02:45:36;;;;;;;5.40;4.80;;;;;;;18.54;100.00;94730.25;5134571;27;20446;-88
2022/07/09 02:48:05;;;;;;;7.20;4.57;;;;;;;18.58;100.00;94737.66;5134860;27;20450;-86
2022/07/09 02:50:33;;;;;;;5.10;4.60;;;;;;;18.62;100.00;94743.47;5134822;27;20465;-88
2022/07/09 02:53:00;;;;;;;5.50;5.10;;;;;;;18.68;100.00;94744.56;5134840;27;20455;-87
2022/07/09 02:55:27;;;;;;;5.27;4.97;;;;;;;18.74;100.00;94736.66;5134690;27;20458;-86
2022/07/09 02:57:54;;;;;;;5.80;5.40;;;;;;;18.65;100.00;94748.41;5134811;27;20433;-88
2022/07/09 03:00:21;;;;;;;5.93;5.33;;;;;;;18.73;100.00;94747.50;5134315;27;20542;-88
2022/07/09 03:02:48;;;;;;;5.73;5.33;;;;;;;18.73;100.00;94747.50;5134510;27;20482;-88
2022/07/09 03:05:16;;;;;;;5.20;4.80;;;;;;;18.76;100.00;94755.91;5134412;27;20458;-86
2022/07/09 03:07:43;;;;;;;5.47;4.97;;;;;;;18.77;100.00;94754.09;5134539;27;20431;-86
2022/07/09 03:10:10;;;;;;;5.47;5.00;;;;;;;18.74;100.00;94747.31;5134817;27;20887;-89
2022/07/09 03:12:37;;;;;;;4.60;4.30;;;;;;;18.76;100.00;94744.47;5134122;27;20457;-87
2022/07/09 03:15:05;;;;;;;5.47;4.97;;;;;;;18.73;100.00;94752.81;5134165;27;20431;-86
2022/07/09 03:17:32;;;;;;;8.20;5.00;;;;;;;18.73;100.00;94745.66;5098524;28;20461;-88
2022/07/09 03:19:59;;;;;;;5.23;4.83;;;;;;;18.72;100.00;94748.50;5133928;28;20509;-87
2022/07/09 03:22:27;;;;;;;6.13;4.97;;;;;;;18.68;100.00;94747.22;5134045;28;20454;-87
2022/07/09 03:24:54;;;;;;;5.60;5.20;;;;;;;18.65;100.00;94751.06;5134212;28;20460;-87
2022/07/09 03:27:21;;;;;;;5.47;4.97;;;;;;;18.62;100.00;94746.13;5134073;28;20442;-87
2022/07/09 03:29:48;;;;;;;5.23;4.80;;;;;;;18.60;100.00;94744.63;5134108;28;20496;-88
2022/07/09 03:32:15;;;;;;;5.23;4.87;;;;;;;18.58;100.00;94739.50;5134483;28;20820;-85
2022/07/09 03:34:42;;;;;;;5.13;4.73;;;;;;;18.64;100.00;94748.59;5134187;28;20454;-88
2022/07/09 03:37:09;;;;;;;4.73;4.33;;;;;;;18.63;100.00;94749.59;5134043;28;20612;-86
2022/07/09 03:39:37;;;;;;;4.50;4.20;;;;;;;18.67;100.00;94746.41;5133716;28;20477;-88
2022/07/09 03:42:06;;;;;;;5.30;4.80;;;;;;;18.68;100.00;94744.56;5134060;28;20450;-87
2022/07/09 03:44:33;;;;;;;5.27;4.80;;;;;;;18.78;100.00;94742.44;5133896;28;20538;-88
2022/07/09 03:47:00;;;;;;;5.57;5.17;;;;;;;18.76;100.00;94745.28;5134077;28;20842;-88
2022/07/09 03:49:27;;;;;;;5.03;4.63;;;;;;;18.79;100.00;94746.75;5137950;27;20450;-89
2022/07/09 03:51:54;;;;;;;5.77;5.00;;;;;;;18.86;100.00;94753.00;5138181;27;20457;-86
2022/07/09 03:54:21;;;;;;;5.03;4.73;;;;;;;18.94;100.00;94752.91;5137539;27;20449;-87
2022/07/09 03:56:49;;;;;;;4.70;4.40;;;;;;;18.94;100.00;94749.41;5137600;27;20438;-88
2022/07/09 03:59:16;;;;;;;5.73;5.33;;;;;;;18.91;100.00;94750.63;5137569;27;20795;-87
2022/07/09 04:01:43;;;;;;;4.77;4.47;;;;;;;18.93;100.00;94753.91;5137903;27;20442;-88
2022/07/09 04:04:10;;;;;;;5.80;5.40;;;;;;;18.92;100.00;94749.59;5137619;27;20443;-88
2022/07/09 04:06:37;;;;;;;5.77;5.27;;;;;;;18.92;100.00;94746.94;5138003;27;20447;-86
2022/07/09 04:09:05;;;;;;;6.77;4.50;;;;;;;18.92;100.00;94740.81;5137659;27;20453;-88
2022/07/09 04:11:32;;;;;;;5.60;5.20;;;;;;;18.94;100.00;94747.59;5137402;27;20483;-88
2022/07/09 04:14:01;;;;;;;6.10;5.50;;;;;;;18.97;100.00;94749.88;5137690;27;20446;-88
2022/07/09 04:16:29;;;;;;;5.60;5.10;;;;;;;18.98;100.00;94754.19;5137303;27;20499;-87
2022/07/09 04:18:56;;;;;;;5.20;4.80;;;;;;;19.00;100.00;94764.63;5116828;27;20474;-86
2022/07/09 04:21:24;;;;;;;5.47;5.07;;;;;;;19.00;100.00;94765.47;5136173;27;20435;-88
2022/07/09 04:23:53;;;;;;;5.27;4.83;;;;;;;19.01;100.00;94764.44;5137341;27;20453;-86
2022/07/09 04:26:20;;;;;;;8.43;5.50;;;;;;;19.02;100.00;94762.59;5136786;27;20491;-87
2022/07/09 04:28:48;;;;;;;4.80;4.50;;;;;;;18.97;100.00;94760.50;5100883;27;20461;-86
2022/07/09 04:31:19;;;;;;;5.00;4.60;;;;;;;19.00;100.00;94764.63;5100760;27;20423;-87
2022/07/09 04:33:46;;;;;;;5.27;4.87;;;;;;;19.05;100.00;94768.38;5137272;27;20549;-86
2022/07/09 04:36:13;;;;;;;5.47;5.07;;;;;;;18.98;100.00;94764.81;5136923;27;20446;-87
2022/07/09 04:38:40;;;;;;;7.00;5.20;;;;;;;18.91;100.00;94761.25;5136898;27;20447;-87
2022/07/09 04:41:07;;;;;;;5.40;4.80;;;;;;;18.92;100.00;94757.59;5136366;27;20446;-86
2022/07/09 04:43:34;;;;;;;5.10;4.73;;;;;;;18.87;100.00;94760.81;5136581;27;20459;-87
2022/07/09 04:46:01;;;;;;;5.93;5.50;;;;;;;18.84;100.00;94763.00;5083370;27;20450;-89
2022/07/09 04:48:29;;;;;;;9.83;5.90;;;;;;;18.78;100.00;94763.72;5136513;27;20482;-88
2022/07/09 04:50:56;;;;;;;5.67;5.17;;;;;;;18.74;100.00;94762.44;5136995;27;20457;-88
2022/07/09 04:53:23;;;;;;;6.17;5.73;;;;;;;18.72;100.00;94759.13;5136660;27;20446;-86
2022/07/09 04:55:50;;;;;;;6.50;6.00;;;;;;;18.80;100.00;94764.38;5136241;27;20453;-88
2022/07/09 04:58:17;;;;;;;8.80;5.47;;;;;;;18.85;100.00;94757.50;5136615;27;20445;-89
2022/07/09 05:00:44;;;;;;;5.97;5.47;;;;;;;18.92;100.00;94752.25;5136120;27;20474;-87
2022/07/09 05:03:11;;;;;;;7.00;6.07;;;;;;;18.96;100.00;94758.03;5136162;27;20435;-86
2022/07/09 05:05:39;;;;;;;5.97;5.47;;;;;;;19.02;100.00;94759.94;5136912;27;20454;-87
2022/07/09 05:08:06;;;;;;;5.93;5.53;;;;;;;18.97;100.00;94760.50;5136301;27;20446;-88
2022/07/09 05:10:34;;;;;;;6.23;5.73;;;;;;;18.94;100.00;94770.69;5136109;27;20478;-87
2022/07/09 05:13:01;;;;;;;6.40;5.90;;;;;;;18.98;100.00;94769.31;5136668;27;20451;-88
2022/07/09 05:15:30;;;;;;;7.27;6.10;;;;;;;18.96;100.00;94766.84;5136678;27;20511;-89
2022/07/09 05:17:57;;;;;;;5.97;5.47;;;;;;;18.94;100.00;94766.19;5136247;27;20925;-86
2022/07/09 05:20:25;;;;;;;6.03;5.53;;;;;;;18.97;100.00;94771.16;5136165;27;20481;-87
2022/07/09 05:22:53;;;;;;;5.20;4.90;;;;;;;18.99;100.00;94769.13;5136253;27;20867;-88
2022/07/09 05:25:21;;;;;;;5.73;5.27;;;;;;;18.95;100.00;94778.47;5136692;27;20823;-86
2022/07/09 05:27:48;;;;;;;6.27;5.87;;;;;;;18.90;100.00;94780.88;5136607;27;20438;-89
2022/07/09 05:30:15;;;;;;;5.80;5.30;;;;;;;18.90;100.00;94785.38;5136249;27;21338;-88
2022/07/09 05:32:43;;;;;;;4.80;4.40;;;;;;;18.89;100.00;94789.88;5136585;27;20789;-88
2022/07/09 05:35:10;;;;;;;8.50;6.33;;;;;;;18.90;100.00;94793.34;5136104;27;20511;-88
2022/07/09 05:37:42;;;;;;;6.27;5.87;;;;;;;18.93;100.00;94785.81;5136217;27;20442;-86
2022/07/09 05:40:12;;;;;;;6.80;5.43;;;;;;;18.91;100.00;94790.50;5135719;27;20482;-86
2022/07/09 05:42:39;;;;;;;7.77;6.17;;;;;;;18.88;100.00;94794.34;5136147;27;20443;-87
2022/07/09 05:45:07;;;;;;;6.10;5.70;;;;;;;18.91;100.00;94795.81;5135879;27;20442;-87
2022/07/09 05:47:35;;;;;;;6.00;5.47;;;;;;;18.93;100.00;94790.31;5135765;27;20437;-89
2022/07/09 05:50:02;;;;;;;6.60;5.50;;;;;;;18.88;100.00;94793.53;5135585;27;20439;-86
2022/07/09 05:52:29;;;;;;;6.30;5.80;;;;;;;18.82;100.00;94794.28;5099367;27;20427;-87
2022/07/09 05:54:56;;;;;;;6.50;5.57;;;;;;;18.86;100.00;94792.88;5135849;27;20442;-86
2022/07/09 05:57:24;;;;;;;5.50;5.03;;;;;;;18.82;100.00;94802.25;5135581;27;20438;-88
2022/07/09 05:59:51;;;;;;;5.90;5.23;;;;;;;18.79;100.00;94794.59;5135448;27;20485;-86
2022/07/09 06:02:19;;;;;;;5.57;5.03;;;;;;;18.79;100.00;94794.59;5135074;27;20455;-86
2022/07/09 06:04:46;;;;;;;5.77;5.27;;;;;;;18.83;100.00;94798.56;5135152;27;20438;-87
2022/07/09 06:07:13;;;;;;;6.60;5.30;;;;;;;18.85;100.00;94794.72;5099213;27;20439;-87
2022/07/09 06:09:40;;;;;;;5.20;4.80;;;;;;;18.79;100.00;94800.78;5135114;27;20438;-89
2022/07/09 06:12:08;;;;;;;6.00;5.40;;;;;;;18.82;100.00;94802.25;5134035;27;20447;-85
2022/07/09 06:14:36;;;;;;;7.10;5.50;;;;;;;18.87;100.00;94806.00;5135159;27;20446;-89
2022/07/09 06:17:06;;;;;;;9.33;5.20;;;;;;;18.90;100.00;94801.31;5135547;27;20434;-84
2022/07/09 06:19:33;;;;;;;8.07;4.90;;;;;;;18.91;100.00;94803.78;5134970;27;20555;-86
2022/07/09 06:22:00;;;;;;;6.60;5.40;;;;;;;18.85;100.00;94801.88;5135242;27;20458;-87
2022/07/09 06:24:27;;;;;;;7.40;4.67;;;;;;;18.87;100.00;94798.03;5135100;27;20457;-86
2022/07/09 06:26:54;;;;;;;5.97;5.00;;;;;;;18.97;100.00;94803.06;5134869;27;20442;-86
2022/07/09 06:29:21;;;;;;;5.50;5.00;;;;;;;18.91;100.00;94803.78;5134772;27;20450;-86
2022/07/09 06:31:50;;;;;;;7.03;5.40;;;;;;;18.87;100.00;94813.16;5146517;27;20446;-87
2022/07/09 06:34:17;;;;;;;4.67;4.27;;;;;;;18.85;100.00;94809.84;5145343;27;20461;-87
2022/07/09 06:36:44;;;;;;;4.77;4.47;;;;;;;18.80;100.00;94804.25;5101039;27;20453;-90
2022/07/09 06:41:55;;;;;;;5.00;4.70;;;;;;;18.86;100.00;94809.66;5134695;27;20429;-86
2022/07/09 06:44:22;;;;;;;5.10;4.70;;;;;;;18.87;100.00;94813.16;5098861;27;20438;-86
2022/07/09 06:46:50;;;;;;;4.60;4.20;;;;;;;18.92;100.00;94817.91;5134751;27;20454;-88
2022/07/09 06:49:17;;;;;;;4.87;4.57;;;;;;;18.96;100.00;94813.88;5134815;27;20805;-86
2022/07/09 06:51:44;;;;;;;5.27;4.77;;;;;;;19.02;100.00;94815.81;5134371;27;20465;-88
2022/07/09 06:54:11;;;;;;;5.60;5.20;;;;;;;19.07;100.00;94813.41;5134474;27;20503;-88
2022/07/09 06:56:38;;;;;;;5.47;4.83;;;;;;;19.04;100.00;94819.09;5134126;27;20466;-86
2022/07/09 06:59:05;;;;;;;4.60;4.30;;;;;;;19.03;100.00;94807.63;5134462;27;20947;-86
2022/07/09 07:01:32;;;;;;;6.77;4.70;;;;;;;19.06;100.00;94817.09;5134510;27;20935;-87
2022/07/09 07:04:00;;;;;;;5.20;4.80;;;;;;;19.06;100.00;94811.75;5134486;27;20449;-88
2022/07/09 07:06:27;;;;;;;6.73;6.03;;;;;;;19.02;100.00;94819.28;5134126;27;20450;-88
2022/07/09 07:08:54;;;;;;;5.30;4.80;;;;;;;18.94;100.00;94818.56;5097495;27;20427;-85
2022/07/09 07:11:20;;;;;;;6.70;6.00;;;;;;;18.93;100.00;94827.53;5134484;27;20470;-86
2022/07/09 07:13:47;;;;;;;5.43;5.03;;;;;;;18.98;100.00;94820.66;5134445;27;20442;-86
2022/07/09 07:16:14;;;;;;;7.27;6.57;;;;;;;19.11;100.00;94820.88;5134345;27;20442;-86
2022/07/09 07:18:41;;;;;;;5.97;5.37;;;;;;;19.19;100.00;94818.09;5081850;28;20441;-88
2022/07/09 07:21:09;;;;;;;6.20;5.00;;;;;;;19.18;100.00;94819.13;5133319;28;20988;-86
2022/07/09 07:23:36;;;;;;;5.47;4.97;;;;;;;19.28;100.00;94818.00;5133321;27;20506;-85
2022/07/09 07:26:03;;;;;;;4.87;4.30;;;;;;;19.27;100.00;94825.16;5134040;28;20484;-83
2022/07/09 07:28:30;;;;;;;7.43;4.90;;;;;;;19.30;100.00;94814.13;5134648;28;20442;-85
2022/07/09 07:30:57;;;;;;;5.53;5.00;;;;;;;19.32;100.00;94821.94;5098277;28;20431;-88
2022/07/09 07:33:24;;;;;;;5.00;4.60;;;;;;;19.35;100.00;94821.56;5134018;28;20814;-87
2022/07/09 07:35:51;;;;;;;6.67;6.07;;;;;;;19.40;100.00;94813.88;5134155;28;20975;-86
2022/07/09 07:38:19;;;;;;;6.90;5.40;;;;;;;19.43;100.00;94819.63;5133803;28;20805;-87
2022/07/09 07:40:46;;;;;;;7.33;5.23;;;;;;;19.52;100.00;94809.69;5133850;28;21016;-87
2022/07/09 07:43:13;;;;;;;6.93;5.00;;;;;;;19.51;100.00;94810.72;5133779;28;20797;-86
2022/07/09 07:45:40;;;;;;;6.07;5.47;;;;;;;19.61;100.00;94813.94;5133154;28;20449;-86
2022/07/09 07:48:07;;;;;;;7.87;5.07;;;;;;;19.62;100.00;94818.25;5133127;28;20440;-86
2022/07/09 07:50:38;;;;;;;8.70;5.30;;;;;;;19.51;100.00;94816.03;5133459;28;20454;-87
2022/07/09 07:53:05;;;;;;;5.20;4.80;;;;;;;19.44;100.00;94818.63;5133576;28;20809;-86
2022/07/09 07:55:33;;;;;;;5.70;5.17;;;;;;;19.55;100.00;94817.34;5133850;28;20457;-87
2022/07/09 07:58:00;;;;;;;11.23;5.70;;;;;;;19.61;100.00;94819.25;5133415;28;20439;-86
2022/07/09 08:00:27;;;;;;;6.70;6.20;;;;;;;19.58;100.00;94813.47;5132997;28;20485;-87
2022/07/09 08:02:54;;;;;;;5.93;5.40;;;;;;;19.68;100.00;94814.84;5133567;28;20446;-88
2022/07/09 08:05:21;;;;;;;5.60;5.10;;;;;;;19.86;100.00;94817.06;5133216;28;20495;-86
2022/07/09 08:07:48;;;;;;;5.40;4.83;;;;;;;19.89;98.18;94807.88;5133768;28;20443;-86
2022/07/09 08:10:15;;;;;;;5.23;4.73;;;;;;;20.02;99.30;94813.38;5133452;28;20477;-87
2022/07/09 08:12:43;;;;;;;6.43;5.73;;;;;;;20.15;98.83;94816.13;5097008;28;20438;-86
2022/07/09 08:15:10;;;;;;;6.70;5.27;;;;;;;20.30;98.30;94806.25;5081552;28;20439;-86
2022/07/09 08:17:37;;;;;;;5.90;5.30;;;;;;;20.32;97.62;94814.06;5133530;28;20442;-86
2022/07/09 08:20:05;;;;;;;7.03;6.30;;;;;;;20.27;95.57;94817.31;5133298;28;20513;-87
2022/07/09 08:22:32;;;;;;;7.03;5.60;;;;;;;20.24;96.00;94807.03;5080430;28;20479;-87
2022/07/09 08:24:59;;;;;;;6.00;4.80;;;;;;;20.16;96.16;94809.78;5133582;28;20442;-86
2022/07/09 08:27:26;;;;;;;5.50;5.10;;;;;;;20.09;96.57;94817.72;5132929;28;20442;-86
2022/07/09 08:29:54;;;;;;;6.53;5.67;;;;;;;20.13;97.05;94806.69;5133162;28;20451;-87
2022/07/09 08:32:21;;;;;;;5.93;5.43;;;;;;;20.00;97.17;94812.72;5133345;28;20556;-87
2022/07/09 08:34:48;;;;;;;6.83;6.23;;;;;;;19.94;98.35;94805.47;5133986;27;20443;-86
2022/07/09 08:37:14;;;;;;;7.00;6.50;;;;;;;19.91;98.64;94817.34;5137139;27;20454;-86
2022/07/09 08:39:41;;;;;;;6.37;5.87;;;;;;;19.87;98.91;94813.41;5137084;27;20446;-88
2022/07/09 08:42:10;;;;;;;10.00;6.50;;;;;;;19.86;98.62;94818.91;5100199;27;20589;-87
2022/07/09 08:44:39;;;;;;;6.67;6.07;;;;;;;19.85;100.00;94817.25;5136615;27;20454;-87
2022/07/09 08:47:08;;;;;;;6.80;6.10;;;;;;;19.88;100.00;94816.88;5136953;27;20442;-86
2022/07/09 08:49:37;;;;;;;6.43;5.83;;;;;;;19.93;100.00;94827.78;5136931;27;20845;-86
2022/07/09 08:52:06;;;;;;;9.63;6.53;;;;;;;19.93;99.31;94830.47;5136925;27;20833;-87
2022/07/09 08:54:35;;;;;;;6.23;5.70;;;;;;;19.90;99.38;94818.34;5136167;27;20435;-86
2022/07/09 08:57:02;;;;;;;7.73;5.90;;;;;;;19.92;100.00;94824.31;5136247;27;20485;-86
2022/07/09 08:59:29;;;;;;;11.90;6.10;;;;;;;20.07;100.00;94821.59;5136978;27;20446;-87
2022/07/09 09:01:56;;;;;;;6.33;5.83;;;;;;;20.14;99.19;94830.47;5136173;27;20478;-87
2022/07/09 09:04:24;;;;;;;5.67;5.10;;;;;;;20.25;98.27;94821.19;5135514;27;20443;-86
2022/07/09 09:06:53;;;;;;;6.10;5.50;;;;;;;20.30;97.52;94827.56;5136096;27;20437;-85
2022/07/09 09:09:21;;;;;;;6.73;6.23;;;;;;;20.28;96.49;94829.59;5136054;27;20442;-88
2022/07/09 09:11:50;;;;;;;6.20;5.70;;;;;;;20.32;97.60;94830.88;5099790;27;20471;-88
2022/07/09 09:14:22;;;;;;;5.93;5.53;;;;;;;20.31;99.03;94828.41;5136112;27;20534;-87
2022/07/09 09:16:50;;;;;;;6.07;5.50;;;;;;;20.22;100.00;94834.84;5136027;27;20454;-87
2022/07/09 09:19:16;;;;;;;7.53;6.63;;;;;;;19.99;100.00;94819.91;5135947;27;20797;-88
2022/07/09 09:21:45;;;;;;;9.50;6.70;;;;;;;19.93;100.00;94811.81;5135692;27;20479;-88
2022/07/09 09:24:11;;;;;;;7.40;6.70;;;;;;;19.88;100.00;94833.69;5135930;27;20454;-88
2022/07/09 09:26:38;;;;;;;8.33;7.60;;;;;;;19.93;100.00;94830.47;5135671;27;20451;-85
2022/07/09 09:29:05;;;;;;;7.50;6.80;;;;;;;19.95;100.00;94828.44;5135684;27;20442;-87
2022/07/09 09:31:34;;;;;;;9.70;6.90;;;;;;;19.99;100.00;94829.72;5135724;27;20499;-87
2022/07/09 09:34:13;;;;;;;8.30;7.60;;;;;;;19.94;100.00;94819.63;5135408;27;20530;-84
2022/07/09 09:36:41;;;;;;;8.50;7.70;;;;;;;19.96;100.00;94828.28;5136046;27;20446;-87
2022/07/09 09:39:14;;;;;;;8.20;7.40;;;;;;;19.99;100.00;94824.41;5082970;27;20435;-87
2022/07/09 09:41:42;;;;;;;11.50;10.30;;;;;;;20.03;100.00;94821.16;5135913;27;20485;-90
2022/07/09 09:44:11;;;;;;;13.73;11.07;;;;;;;20.22;100.00;94822.34;5135805;27;20446;-84
2022/07/09 09:46:39;;;;;;;9.50;8.60;;;;;;;20.42;100.00;94819.91;5135696;27;20423;-86
2022/07/09 09:49:07;;;;;;;8.13;7.43;;;;;;;20.57;100.00;94820.66;5135436;27;20486;-87
2022/07/09 09:51:36;;;;;;;9.20;8.43;;;;;;;20.57;99.39;94818.00;5135246;27;20431;-85
2022/07/09 09:54:04;;;;;;;10.20;9.20;;;;;;;20.68;100.00;94820.13;5099349;27;20496;-86
2022/07/09 09:56:33;;;;;;;17.57;13.50;;;;;;;20.83;100.00;94817.38;5135214;27;20442;-87
2022/07/09 09:59:01;;;;;;;9.53;8.50;;;;;;;20.87;97.49;94820.47;5081561;27;20488;-86
2022/07/09 10:01:29;;;;;;;10.30;9.30;;;;;;;20.91;90.72;94817.22;5134719;27;20477;-84
2022/07/09 10:03:57;;;;;;;9.60;8.70;;;;;;;20.84;89.20;94818.19;5134732;27;20835;-85
2022/07/09 10:06:25;;;;;;;9.37;8.47;;;;;;;20.86;88.94;94824.97;5134698;27;20442;-85
2022/07/09 10:08:52;;;;;;;8.67;8.03;;;;;;;20.82;87.11;94828.22;5135097;27;20443;-86
2022/07/09 10:11:19;;;;;;;10.03;7.43;;;;;;;20.90;90.29;94831.56;5081421;27;20462;-88
2022/07/09 10:13:57;;;;;;;9.77;8.87;;;;;;;20.91;88.99;94819.88;5134859;27;20451;-85
2022/07/09 10:16:35;;;;;;;8.47;7.67;;;;;;;20.87;88.66;94823.97;5135617;27;20442;-87
2022/07/09 10:19:01;;;;;;;7.07;6.57;;;;;;;20.78;87.97;94822.44;5135304;27;20446;-87
2022/07/09 10:21:35;;;;;;;8.73;7.80;;;;;;;20.64;88.91;94824.19;5136779;27;20494;-86
2022/07/09 10:24:03;;;;;;;10.20;9.30;;;;;;;20.57;89.72;94827.84;5135103;27;20812;-86
2022/07/09 10:26:48;;;;;;;11.90;9.33;;;;;;;20.32;90.10;94827.38;5134524;27;20442;-86
2022/07/09 10:29:21;;;;;;;9.67;8.13;;;;;;;20.29;91.31;94831.25;5134597;27;20451;-86
2022/07/09 10:31:48;;;;;;;8.43;7.63;;;;;;;20.17;90.52;94822.09;5135406;27;20450;-85
2022/07/09 10:34:31;;;;;;;7.80;7.20;;;;;;;20.20;90.78;94821.72;5134505;27;20446;-85
2022/07/09 10:36:58;;;;;;;9.47;8.03;;;;;;;20.25;91.64;94819.34;5134342;27;20447;-85
2022/07/09 10:39:25;;;;;;;8.83;7.90;;;;;;;20.27;91.80;94825.28;5134633;27;20905;-85
2022/07/09 10:42:00;;;;;;;11.60;8.67;;;;;;;20.23;91.56;94825.84;5081153;27;20478;-87
2022/07/09 10:44:29;;;;;;;8.63;7.83;;;;;;;20.21;91.38;94822.53;5081215;27;20450;-86
2022/07/09 10:46:58;;;;;;;12.00;7.50;;;;;;;20.24;91.32;94825.69;5134335;27;20878;-85
2022/07/09 10:49:26;;;;;;;7.20;6.70;;;;;;;20.23;90.34;94825.84;5134101;27;20443;-86
2022/07/09 10:51:57;;;;;;;8.80;7.37;;;;;;;20.12;89.71;94819.19;5133627;27;20442;-86
2022/07/09 10:54:24;;;;;;;8.97;8.17;;;;;;;20.09;89.47;94833.72;5134174;27;20438;-87
2022/07/09 10:56:51;;;;;;;8.23;7.63;;;;;;;20.11;90.12;94828.19;5134017;27;20940;-87
2022/07/09 10:59:18;;;;;;;7.13;6.53;;;;;;;20.01;88.70;94836.50;5133511;27;20458;-87
2022/07/09 11:01:47;;;;;;;7.23;6.67;;;;;;;19.88;89.77;94847.00;5133586;27;20478;-86
2022/07/09 11:04:25;;;;;;;5.63;5.23;;;;;;;19.76;89.46;94837.88;5133850;27;20811;-87
2022/07/09 11:06:51;;;;;;;9.00;5.17;;;;;;;19.79;91.09;94838.31;5133725;27;20774;-86
2022/07/09 11:09:18;;;;;;;3.70;3.50;;;;;;;19.73;89.77;94828.41;5133572;27;20442;-86
2022/07/09 11:11:47;;;;;;;4.40;4.10;;;;;;;19.70;89.03;94833.31;5133705;27;20988;-87
2022/07/09 11:14:14;;;;;;;7.50;4.03;;;;;;;19.67;90.07;94834.50;5097920;28;20434;-86
2022/07/09 11:16:41;;;;;;;4.37;4.07;;;;;;;19.80;93.43;94829.31;5133904;27;20453;-85
2022/07/09 11:19:16;;;;;;;5.90;4.10;;;;;;;19.91;95.64;94835.16;5133593;27;20937;-86
2022/07/09 11:21:44;;;;;;;4.50;4.10;;;;;;;19.94;93.40;94832.09;5133557;28;20478;-88
2022/07/09 11:24:15;;;;;;;4.70;4.30;;;;;;;19.97;96.21;94826.44;5133506;28;20439;-87
2022/07/09 11:26:42;;;;;;;10.30;4.20;;;;;;;20.14;94.71;94825.16;5080789;28;20458;-86
2022/07/09 11:29:09;;;;;;;3.93;3.63;;;;;;;20.22;95.72;94830.34;5133864;28;20442;-86
2022/07/09 11:31:37;;;;;;;5.43;4.20;;;;;;;20.37;96.36;94839.09;5133711;28;20438;-85